createdAt,value
2022-12-03T00:00:18.668Z,60.70
2022-12-03T00:02:53.594Z,61.00
2022-12-03T00:05:28.532Z,61.10
2022-12-03T00:08:03.876Z,61.10
2022-12-03T00:10:38.807Z,61.20
2022-12-03T00:13:13.704Z,61.10
2022-12-03T00:15:48.588Z,61.00
2022-12-03T00:18:23.459Z,61.00
2022-12-03T00:20:58.347Z,61.00
2022-12-03T00:23:35.950Z,61.20
2022-12-03T00:26:15.062Z,61.10
2022-12-03T00:28:49.945Z,61.10
2022-12-03T00:31:25.757Z,61.30
2022-12-03T00:34:00.630Z,61.30
2022-12-03T00:36:35.503Z,61.00
2022-12-03T00:39:10.354Z,60.90
2022-12-03T00:41:45.374Z,60.60
2022-12-03T00:44:20.238Z,60.40
2022-12-03T00:46:55.175Z,60.50
2022-12-03T00:49:30.076Z,60.40
2022-12-03T00:52:04.986Z,60.10
2022-12-03T00:54:39.844Z,59.80
2022-12-03T00:57:14.785Z,59.60
2022-12-03T00:59:49.603Z,59.50
2022-12-03T01:02:24.572Z,59.50
2022-12-03T01:04:59.670Z,59.40
2022-12-03T01:07:34.873Z,59.40
2022-12-03T01:10:10.633Z,59.50
2022-12-03T01:12:45.484Z,59.40
2022-12-03T01:15:20.388Z,59.40
2022-12-03T01:17:55.288Z,59.30
2022-12-03T01:20:30.189Z,59.30
2022-12-03T01:23:05.532Z,59.30
2022-12-03T01:25:40.446Z,59.30
2022-12-03T01:28:15.305Z,59.30
2022-12-03T01:31:08.736Z,59.30
2022-12-03T01:33:43.785Z,59.30
2022-12-03T01:36:18.669Z,59.20
2022-12-03T01:38:53.613Z,59.10
2022-12-03T01:41:29.344Z,59.20
2022-12-03T01:44:15.649Z,59.30
2022-12-03T01:46:52.267Z,59.30
2022-12-03T01:49:50.016Z,59.40
2022-12-03T01:52:32.826Z,59.60
2022-12-03T01:55:16.475Z,59.60
2022-12-03T01:57:56.299Z,59.70
2022-12-03T02:00:31.660Z,59.70
2022-12-03T02:03:22.742Z,60.00
2022-12-03T02:05:57.690Z,60.20
2022-12-03T02:08:39.100Z,60.20
2022-12-03T02:11:24.929Z,60.30
2022-12-03T02:14:06.736Z,60.20
2022-12-03T02:16:42.833Z,60.20
2022-12-03T02:19:27.791Z,60.30
2022-12-03T02:22:29.780Z,60.50
2022-12-03T02:25:19.882Z,60.50
2022-12-03T02:27:55.693Z,60.40
2022-12-03T02:30:31.671Z,60.40
2022-12-03T02:33:06.824Z,60.40
2022-12-03T02:35:41.843Z,60.40
2022-12-03T02:38:26.636Z,60.40
2022-12-03T02:41:07.615Z,60.50
2022-12-03T02:43:42.523Z,60.40
2022-12-03T02:46:17.438Z,60.20
2022-12-03T02:48:52.562Z,60.10
2022-12-03T02:51:27.596Z,60.00
2022-12-03T02:54:03.489Z,60.20
2022-12-03T02:56:38.511Z,60.00
2022-12-03T02:59:13.444Z,60.00
2022-12-03T03:01:48.490Z,60.00
2022-12-03T03:04:24.937Z,59.90
2022-12-03T03:06:59.955Z,59.90
2022-12-03T03:09:35.201Z,60.00
2022-12-03T03:12:10.804Z,60.10
2022-12-03T03:14:45.977Z,59.80
2022-12-03T03:17:20.980Z,59.90
2022-12-03T03:19:55.899Z,60.10
2022-12-03T03:22:41.061Z,60.10
2022-12-03T03:25:21.137Z,60.20
2022-12-03T03:27:56.023Z,60.30
2022-12-03T03:30:31.153Z,60.40
2022-12-03T03:33:06.728Z,60.40
2022-12-03T03:35:43.673Z,60.30
2022-12-03T03:38:20.591Z,60.40
2022-12-03T03:40:58.614Z,60.30
2022-12-03T03:43:35.266Z,60.20
2022-12-03T03:46:11.254Z,60.30
2022-12-03T03:48:48.598Z,60.10
2022-12-03T03:51:23.616Z,60.10
2022-12-03T03:53:58.806Z,60.10
2022-12-03T03:56:34.705Z,60.10
2022-12-03T03:59:09.696Z,60.00
2022-12-03T04:01:46.298Z,59.90
2022-12-03T04:04:24.233Z,60.00
2022-12-03T04:06:59.373Z,60.10
2022-12-03T04:09:34.260Z,60.30
2022-12-03T04:12:30.437Z,60.50
2022-12-03T04:15:06.415Z,60.30
2022-12-03T04:17:41.310Z,60.50
2022-12-03T04:20:16.958Z,60.50
2022-12-03T04:22:51.843Z,60.50
2022-12-03T04:25:45.079Z,60.60
2022-12-03T04:28:38.567Z,60.70
2022-12-03T04:31:31.847Z,60.50
2022-12-03T04:34:25.389Z,60.50
2022-12-03T04:37:00.306Z,60.50
2022-12-03T04:39:35.496Z,60.50
2022-12-03T04:42:10.467Z,60.60
2022-12-03T04:44:45.409Z,60.60
2022-12-03T04:47:21.838Z,60.40
2022-12-03T04:49:56.691Z,60.20
2022-12-03T04:52:31.544Z,60.10
2022-12-03T04:55:07.662Z,60.00
2022-12-03T04:57:42.579Z,60.00
2022-12-03T05:00:17.748Z,59.90
2022-12-03T05:02:52.823Z,59.90
2022-12-03T05:05:27.757Z,59.80
2022-12-03T05:08:02.641Z,59.60
2022-12-03T05:10:38.001Z,59.40
2022-12-03T05:13:12.891Z,59.20
2022-12-03T05:15:47.783Z,59.20
2022-12-03T05:18:22.673Z,59.20
2022-12-03T05:20:57.571Z,59.20
2022-12-03T05:23:32.478Z,59.10
2022-12-03T05:26:07.440Z,59.00
2022-12-03T05:28:42.348Z,58.90
2022-12-03T05:31:17.422Z,58.80
2022-12-03T05:33:52.411Z,58.70
2022-12-03T05:36:27.434Z,58.50
2022-12-03T05:39:02.289Z,58.50
2022-12-03T05:41:55.860Z,58.40
2022-12-03T05:44:30.739Z,58.30
2022-12-03T05:47:06.024Z,58.50
2022-12-03T05:49:41.106Z,58.50
2022-12-03T05:52:16.092Z,58.50
2022-12-03T05:54:51.303Z,58.50
2022-12-03T05:57:26.347Z,58.60
2022-12-03T06:00:01.252Z,58.70
2022-12-03T06:02:36.445Z,58.60
2022-12-03T06:05:13.771Z,58.60
2022-12-03T06:07:50.804Z,58.50
2022-12-03T06:10:26.447Z,58.40
2022-12-03T06:13:02.144Z,58.30
2022-12-03T06:15:43.307Z,58.50
2022-12-03T06:18:18.768Z,58.80
2022-12-03T06:20:53.670Z,58.50
2022-12-03T06:23:28.549Z,58.60
2022-12-03T06:26:03.604Z,58.60
2022-12-03T06:28:38.895Z,58.70
2022-12-03T06:31:14.192Z,58.50
2022-12-03T06:33:49.195Z,58.40
2022-12-03T06:36:26.682Z,58.40
2022-12-03T06:39:01.627Z,58.30
2022-12-03T06:41:36.621Z,58.10
2022-12-03T06:44:11.591Z,57.90
2022-12-03T06:46:46.578Z,57.60
2022-12-03T06:49:21.558Z,57.30
2022-12-03T06:51:56.451Z,57.70
2022-12-03T06:54:31.517Z,56.70
2022-12-03T06:57:06.467Z,56.30
2022-12-03T06:59:41.509Z,56.00
2022-12-03T07:02:16.411Z,56.00
2022-12-03T07:04:51.555Z,56.20
2022-12-03T07:07:26.599Z,56.40
2022-12-03T07:10:01.659Z,56.70
2022-12-03T07:12:36.623Z,56.70
2022-12-03T07:15:11.728Z,56.70
2022-12-03T07:17:46.677Z,56.70
2022-12-03T07:20:23.612Z,57.10
2022-12-03T07:22:58.551Z,56.70
2022-12-03T07:25:33.494Z,56.90
2022-12-03T07:28:08.403Z,56.90
2022-12-03T07:30:43.346Z,57.20
2022-12-03T07:33:18.306Z,57.90
2022-12-03T07:35:53.588Z,58.10
2022-12-03T07:38:28.487Z,58.20
2022-12-03T07:41:03.541Z,58.30
2022-12-03T07:43:38.625Z,58.40
2022-12-03T07:46:13.642Z,58.40
2022-12-03T07:48:48.726Z,58.20
2022-12-03T07:51:27.482Z,58.40
2022-12-03T07:54:07.115Z,57.50
2022-12-03T07:56:42.552Z,58.10
2022-12-03T07:59:18.120Z,58.30
2022-12-03T08:01:53.213Z,58.00
2022-12-03T08:04:28.618Z,57.90
2022-12-03T08:07:03.615Z,57.50
2022-12-03T08:09:40.942Z,57.60
2022-12-03T08:12:39.851Z,57.60
2022-12-03T08:15:23.734Z,57.40
2022-12-03T08:18:00.738Z,57.50
2022-12-03T08:20:41.460Z,57.50
2022-12-03T08:23:19.825Z,57.00
2022-12-03T08:25:54.836Z,56.80
2022-12-03T08:28:31.281Z,56.90
2022-12-03T08:31:32.349Z,56.90
2022-12-03T08:34:27.091Z,56.60
2022-12-03T08:37:15.827Z,56.30
2022-12-03T08:39:54.611Z,56.10
2022-12-03T08:42:41.789Z,56.00
2022-12-03T08:45:30.234Z,56.20
2022-12-03T08:48:39.273Z,55.70
2022-12-03T08:51:25.175Z,55.70
2022-12-03T08:54:11.220Z,55.70
2022-12-03T08:56:46.087Z,55.70
2022-12-03T08:59:25.969Z,55.30
2022-12-03T09:02:00.898Z,55.00
2022-12-03T09:04:47.776Z,54.60
2022-12-03T09:07:22.719Z,54.10
2022-12-03T09:09:57.611Z,53.20
2022-12-03T09:12:32.475Z,52.60
2022-12-03T09:15:08.384Z,52.20
2022-12-03T09:17:43.402Z,51.70
2022-12-03T09:20:18.308Z,50.80
2022-12-03T09:22:53.200Z,50.50
2022-12-03T09:25:28.094Z,48.90
2022-12-03T09:28:02.971Z,48.10
2022-12-03T09:30:38.173Z,47.90
2022-12-03T09:33:13.984Z,47.70
2022-12-03T09:35:48.951Z,47.60
2022-12-03T09:38:23.878Z,47.70
2022-12-03T09:40:59.935Z,47.20
2022-12-03T09:44:02.622Z,47.20
2022-12-03T09:46:30.510Z,47.50
2022-12-03T09:49:13.983Z,46.90
2022-12-03T09:51:50.692Z,46.60
2022-12-03T09:54:29.286Z,46.80
2022-12-03T09:57:04.550Z,46.30
2022-12-03T09:59:39.501Z,46.20
2022-12-03T10:02:26.924Z,46.10
2022-12-03T10:05:02.045Z,46.20
2022-12-03T10:07:37.761Z,46.40
2022-12-03T10:10:22.832Z,46.40
2022-12-03T10:12:57.744Z,45.60
2022-12-03T10:15:33.393Z,44.60
2022-12-03T10:18:30.631Z,44.00
2022-12-03T10:21:19.205Z,43.70
2022-12-03T10:24:22.998Z,43.10
2022-12-03T10:27:03.068Z,42.70
2022-12-03T10:29:38.158Z,42.60
2022-12-03T10:32:13.188Z,42.30
2022-12-03T10:34:48.087Z,42.10
2022-12-03T10:37:23.171Z,42.10
2022-12-03T10:40:12.174Z,41.70
2022-12-03T10:42:47.083Z,42.10
2022-12-03T10:45:23.556Z,42.10
2022-12-03T10:48:21.064Z,42.30
2022-12-03T10:51:03.921Z,42.30
2022-12-03T10:53:41.083Z,41.70
2022-12-03T10:56:26.571Z,41.80
2022-12-03T10:59:01.438Z,41.90
2022-12-03T11:01:36.842Z,41.60
2022-12-03T11:04:22.119Z,41.70
2022-12-03T11:06:57.032Z,41.80
2022-12-03T11:09:33.534Z,41.70
2022-12-03T11:12:27.033Z,41.60
2022-12-03T11:15:06.635Z,41.80
2022-12-03T11:17:47.498Z,41.30
2022-12-03T11:20:25.056Z,41.20
2022-12-03T11:23:00.412Z,41.30
2022-12-03T11:25:47.841Z,41.30
2022-12-03T11:28:32.961Z,41.30
2022-12-03T11:31:12.178Z,41.30
2022-12-03T11:33:47.111Z,41.40
2022-12-03T11:36:42.076Z,41.50
2022-12-03T11:39:51.741Z,41.60
2022-12-03T11:42:39.272Z,42.00
2022-12-03T11:45:37.282Z,42.20
2022-12-03T11:48:15.181Z,42.00
2022-12-03T11:50:53.038Z,41.70
2022-12-03T11:53:35.826Z,41.60
2022-12-03T11:56:27.136Z,41.40
2022-12-03T11:59:11.390Z,40.90
2022-12-03T12:01:46.931Z,40.60
2022-12-03T12:04:37.945Z,40.80
2022-12-03T12:07:12.910Z,41.00
2022-12-03T12:09:55.198Z,41.00
2022-12-03T12:12:51.074Z,40.70
2022-12-03T12:15:44.304Z,40.60
2022-12-03T12:18:51.155Z,40.60
2022-12-03T12:21:47.788Z,40.70
2022-12-03T12:24:28.859Z,40.20
2022-12-03T12:27:29.518Z,40.00
2022-12-03T12:30:17.089Z,39.90
2022-12-03T12:33:23.351Z,39.80
2022-12-03T12:35:58.359Z,39.70
2022-12-03T12:38:33.262Z,39.60
2022-12-03T12:41:10.460Z,39.20
2022-12-03T12:43:45.424Z,39.40
2022-12-03T12:46:46.560Z,39.40
2022-12-03T12:49:15.875Z,39.20
2022-12-03T12:51:50.968Z,39.30
2022-12-03T12:54:25.859Z,39.20
2022-12-03T12:57:00.779Z,39.40
2022-12-03T12:59:35.868Z,39.60
2022-12-03T13:02:58.732Z,39.40
2022-12-03T13:05:41.567Z,39.60
2022-12-03T13:08:40.534Z,39.60
2022-12-03T13:11:42.145Z,39.50
2022-12-03T13:14:23.892Z,39.60
2022-12-03T13:17:01.759Z,39.60
2022-12-03T13:19:48.306Z,39.60
2022-12-03T13:22:25.805Z,39.40
2022-12-03T13:28:33.689Z,39.60
2022-12-03T13:31:40.592Z,39.80
2022-12-03T13:34:33.402Z,39.80
2022-12-03T13:37:34.133Z,40.00
2022-12-03T13:40:27.679Z,40.20
2022-12-03T13:43:12.296Z,40.60
2022-12-03T13:45:51.361Z,40.70
2022-12-03T13:48:32.171Z,40.80
2022-12-03T13:51:31.923Z,41.00
2022-12-03T13:54:16.217Z,41.10
2022-12-03T13:56:51.248Z,41.10
2022-12-03T13:59:26.552Z,41.20
2022-12-03T14:02:01.508Z,41.30
2022-12-03T14:04:36.604Z,41.10
2022-12-03T14:07:11.473Z,41.20
2022-12-03T14:09:46.359Z,41.10
2022-12-03T14:12:26.981Z,40.80
2022-12-03T14:15:04.631Z,40.70
2022-12-03T14:17:39.543Z,40.50
2022-12-03T14:20:15.589Z,40.70
2022-12-03T14:22:52.941Z,40.60
2022-12-03T14:25:32.592Z,40.50
2022-12-03T14:28:10.302Z,40.70
2022-12-03T14:30:45.229Z,41.10
2022-12-03T14:33:20.114Z,41.30
2022-12-03T14:35:56.232Z,41.20
2022-12-03T14:38:31.391Z,41.80
2022-12-03T14:41:26.352Z,41.60
2022-12-03T14:44:01.228Z,41.40
2022-12-03T14:46:36.143Z,41.20
2022-12-03T14:49:11.262Z,41.10
2022-12-03T14:51:46.146Z,41.40
2022-12-03T14:54:21.897Z,41.30
2022-12-03T14:56:56.953Z,41.30
2022-12-03T14:59:31.899Z,41.20
2022-12-03T15:02:07.121Z,41.10
2022-12-03T15:04:42.402Z,41.20
2022-12-03T15:07:17.302Z,41.00
2022-12-03T15:09:52.540Z,41.30
2022-12-03T15:12:27.681Z,41.20
2022-12-03T15:15:02.561Z,41.40
2022-12-03T15:17:37.481Z,41.50
2022-12-03T15:20:13.021Z,41.20
2022-12-03T15:22:47.946Z,41.30
2022-12-03T15:25:25.562Z,41.30
2022-12-03T15:28:00.774Z,42.50
2022-12-03T15:30:36.105Z,41.80
2022-12-03T15:33:11.228Z,41.90
2022-12-03T15:35:46.268Z,41.70
2022-12-03T15:38:21.417Z,41.50
2022-12-03T15:40:56.764Z,41.30
2022-12-03T15:43:31.733Z,41.10
2022-12-03T15:46:06.758Z,41.30
2022-12-03T15:48:41.975Z,41.70
2022-12-03T15:51:17.217Z,41.10
2022-12-03T15:53:52.302Z,41.10
2022-12-03T15:56:27.248Z,41.00
2022-12-03T15:59:02.291Z,41.10
2022-12-03T16:01:37.290Z,41.00
2022-12-03T16:04:12.332Z,41.10
2022-12-03T16:06:47.474Z,41.00
2022-12-03T16:09:26.937Z,41.50
2022-12-03T16:12:02.232Z,41.40
2022-12-03T16:14:37.246Z,41.20
2022-12-03T16:17:12.279Z,41.10
2022-12-03T16:19:47.494Z,41.20
2022-12-03T16:22:22.437Z,41.30
2022-12-03T16:24:57.397Z,41.10
2022-12-03T16:27:32.742Z,40.90
2022-12-03T16:30:08.873Z,41.10
2022-12-03T16:32:44.133Z,41.10
2022-12-03T16:35:19.220Z,40.90
2022-12-03T16:37:54.267Z,40.30
2022-12-03T16:40:29.213Z,40.20
2022-12-03T16:43:04.928Z,40.30
2022-12-03T16:45:42.480Z,40.00
2022-12-03T16:48:18.707Z,40.10
2022-12-03T16:50:53.876Z,40.20
2022-12-03T16:53:28.870Z,40.30
2022-12-03T16:56:04.042Z,40.40
2022-12-03T16:58:39.143Z,40.40
2022-12-03T17:01:14.451Z,40.30
2022-12-03T17:03:49.502Z,40.20
2022-12-03T17:06:24.560Z,40.20
2022-12-03T17:08:59.653Z,40.30
2022-12-03T17:11:34.570Z,40.20
2022-12-03T17:14:09.535Z,40.30
2022-12-03T17:16:44.514Z,40.40
2022-12-03T17:19:21.544Z,40.20
2022-12-03T17:21:56.497Z,40.40
2022-12-03T17:24:31.709Z,40.50
2022-12-03T17:27:07.877Z,40.80
2022-12-03T17:29:42.928Z,40.90
2022-12-03T17:32:17.820Z,40.60
2022-12-03T17:34:52.884Z,40.30
2022-12-03T17:37:27.782Z,40.30
2022-12-03T17:40:06.626Z,40.10
2022-12-03T17:42:41.625Z,40.10
2022-12-03T17:45:16.670Z,40.20
2022-12-03T17:47:51.683Z,40.00
2022-12-03T17:50:26.585Z,40.40
2022-12-03T17:53:03.759Z,40.60
2022-12-03T17:55:44.512Z,40.70
2022-12-03T17:58:20.412Z,40.70
2022-12-03T18:01:01.824Z,40.50
2022-12-03T18:03:38.307Z,40.70
2022-12-03T18:06:13.345Z,40.70
2022-12-03T18:08:48.275Z,40.70
2022-12-03T18:11:23.539Z,40.60
2022-12-03T18:13:58.741Z,40.50
2022-12-03T18:16:33.789Z,40.50
2022-12-03T18:19:08.722Z,40.80
2022-12-03T18:21:43.634Z,40.60
2022-12-03T18:24:18.508Z,40.50
2022-12-03T18:26:53.387Z,40.20
2022-12-03T18:29:28.309Z,40.00
2022-12-03T18:32:03.379Z,40.30
2022-12-03T18:34:38.285Z,40.40
2022-12-03T18:37:14.269Z,40.20
2022-12-03T18:39:49.278Z,40.40
2022-12-03T18:42:24.667Z,40.50
2022-12-03T18:44:59.774Z,40.60
2022-12-03T18:47:34.740Z,40.80
2022-12-03T18:50:11.788Z,40.80
2022-12-03T18:52:46.643Z,41.00
2022-12-03T18:55:22.186Z,40.90
2022-12-03T18:57:57.098Z,40.60
2022-12-03T19:00:32.383Z,40.80
2022-12-03T19:03:08.039Z,41.00
2022-12-03T19:05:42.979Z,40.90
2022-12-03T19:08:19.236Z,41.00
2022-12-03T19:10:59.781Z,40.80
2022-12-03T19:13:34.714Z,40.90
2022-12-03T19:16:12.116Z,40.90
2022-12-03T19:18:47.081Z,41.10
2022-12-03T19:21:22.242Z,41.30
2022-12-03T19:24:23.211Z,41.30
2022-12-03T19:26:54.760Z,41.20
2022-12-03T19:29:29.775Z,41.20
2022-12-03T19:32:05.282Z,41.40
2022-12-03T19:34:40.493Z,41.30
2022-12-03T19:37:15.536Z,41.30
2022-12-03T19:39:54.235Z,41.30
2022-12-03T19:42:31.085Z,41.70
2022-12-03T19:45:07.452Z,41.40
2022-12-03T19:47:42.400Z,41.60
2022-12-03T19:50:22.666Z,41.50
2022-12-03T19:52:58.044Z,41.50
2022-12-03T19:55:35.439Z,41.30
2022-12-03T19:58:10.317Z,41.40
2022-12-03T20:00:45.276Z,41.20
2022-12-03T20:03:21.449Z,41.20
2022-12-03T20:05:59.913Z,41.40
2022-12-03T20:08:38.126Z,41.40
2022-12-03T20:11:22.814Z,41.50
2022-12-03T20:14:01.296Z,41.70
2022-12-03T20:16:36.683Z,41.40
2022-12-03T20:19:15.283Z,41.40
2022-12-03T20:21:50.132Z,41.30
2022-12-03T20:24:25.194Z,41.10
2022-12-03T20:27:00.102Z,41.00
2022-12-03T20:29:35.085Z,40.90
2022-12-03T20:32:10.209Z,40.90
2022-12-03T20:34:45.270Z,41.00
2022-12-03T20:37:20.164Z,40.90
2022-12-03T20:39:55.419Z,40.60
2022-12-03T20:42:30.605Z,40.80
2022-12-03T20:45:06.282Z,40.70
2022-12-03T20:47:41.562Z,40.80
2022-12-03T20:50:16.496Z,40.50
2022-12-03T20:53:09.737Z,40.50
2022-12-03T20:55:55.049Z,40.60
2022-12-03T20:58:31.547Z,40.60
2022-12-03T21:01:15.587Z,40.50
2022-12-03T21:03:53.228Z,40.70
2022-12-03T21:06:29.957Z,40.90
2022-12-03T21:09:07.321Z,41.20
2022-12-03T21:11:42.686Z,41.30
2022-12-03T21:14:17.688Z,41.30
2022-12-03T21:17:07.678Z,41.00
2022-12-03T21:19:43.542Z,41.10
2022-12-03T21:22:18.519Z,40.80
2022-12-03T21:24:53.445Z,40.90
2022-12-03T21:27:28.493Z,41.10
2022-12-03T21:30:04.040Z,41.20
2022-12-03T21:32:39.784Z,41.20
2022-12-03T21:35:14.818Z,40.90
2022-12-03T21:37:50.192Z,40.90
2022-12-03T21:40:25.337Z,41.00
2022-12-03T21:43:00.292Z,41.20
2022-12-03T21:45:35.125Z,41.30
2022-12-03T21:48:10.609Z,41.30
2022-12-03T21:50:46.056Z,41.20
2022-12-03T21:53:20.900Z,41.40
2022-12-03T21:55:56.167Z,41.30
2022-12-03T21:58:31.055Z,41.20
2022-12-03T22:01:20.164Z,41.40
2022-12-03T22:03:55.253Z,41.30
2022-12-03T22:06:30.222Z,41.00
2022-12-03T22:09:05.111Z,41.00
2022-12-03T22:11:40.037Z,40.90
2022-12-03T22:14:15.037Z,41.00
2022-12-03T22:16:49.917Z,41.10
2022-12-03T22:19:25.748Z,41.00
2022-12-03T22:22:00.616Z,41.10
2022-12-03T22:24:35.530Z,41.10
2022-12-03T22:27:10.404Z,41.20
2022-12-03T22:29:45.301Z,41.30
2022-12-03T22:32:20.264Z,41.30
2022-12-03T22:34:55.163Z,41.20
2022-12-03T22:37:30.016Z,41.30
2022-12-03T22:40:05.754Z,41.20
2022-12-03T22:42:40.666Z,41.30
2022-12-03T22:45:15.618Z,41.30
2022-12-03T22:47:50.490Z,41.40
2022-12-03T22:50:25.371Z,41.50
2022-12-03T22:53:00.362Z,41.50
2022-12-03T22:55:35.254Z,41.60
2022-12-03T22:58:11.012Z,41.60
2022-12-03T23:00:45.888Z,41.60
2022-12-03T23:03:22.072Z,41.30
2022-12-03T23:05:57.004Z,41.40
2022-12-03T23:08:31.853Z,41.40
2022-12-03T23:11:07.699Z,41.40
2022-12-03T23:13:42.740Z,41.40
2022-12-03T23:16:22.487Z,41.70
2022-12-03T23:18:59.799Z,41.30
2022-12-03T23:21:35.726Z,41.40
2022-12-03T23:24:10.635Z,41.70
2022-12-03T23:26:45.522Z,41.60
2022-12-03T23:29:20.488Z,41.50
2022-12-03T23:31:57.200Z,41.30
2022-12-03T23:34:32.142Z,41.00
2022-12-03T23:37:07.075Z,41.20
2022-12-03T23:39:42.050Z,41.30
2022-12-03T23:42:17.132Z,41.90
2022-12-03T23:44:52.097Z,41.40
2022-12-03T23:47:26.952Z,41.30
2022-12-03T23:50:02.519Z,41.30
2022-12-03T23:52:37.640Z,40.80
2022-12-03T23:55:12.490Z,40.80
2022-12-03T23:57:47.434Z,40.30
